createdAt,value
2023-05-08T00:03:59.648Z,1.70
2023-05-08T00:09:01.690Z,1.90
2023-05-08T00:14:05.385Z,2.00
2023-05-08T00:19:08.754Z,2.50
2023-05-08T00:24:10.970Z,1.80
2023-05-08T00:29:14.198Z,2.10
2023-05-08T00:34:16.183Z,1.90
2023-05-08T00:39:18.082Z,1.87
2023-05-08T00:44:21.790Z,1.93
2023-05-08T00:49:24.645Z,1.60
2023-05-08T00:54:28.486Z,1.47
2023-05-08T00:59:32.434Z,1.70
2023-05-08T01:04:36.218Z,1.87
2023-05-08T01:09:38.550Z,1.33
2023-05-08T01:15:00.803Z,1.60
2023-05-08T01:20:15.342Z,1.40
2023-05-08T01:26:02.265Z,1.60
2023-05-08T01:31:18.651Z,1.50
2023-05-08T01:36:27.424Z,1.43
2023-05-08T01:41:32.818Z,1.10
2023-05-08T01:46:35.611Z,1.70
2023-05-08T01:51:46.538Z,1.27
2023-05-08T01:56:50.122Z,2.07
2023-05-08T02:01:57.065Z,2.60
2023-05-08T02:07:01.907Z,3.13
2023-05-08T02:12:04.839Z,3.47
2023-05-08T02:17:09.401Z,4.10
2023-05-08T02:22:13.318Z,5.57
2023-05-08T02:27:17.280Z,4.30
2023-05-08T02:32:21.431Z,2.83
2023-05-08T02:37:26.834Z,2.67
2023-05-08T02:42:29.095Z,2.53
2023-05-08T02:47:40.874Z,2.03
2023-05-08T02:52:49.233Z,2.43
2023-05-08T02:58:05.051Z,2.40
2023-05-08T03:03:13.256Z,1.73
2023-05-08T03:08:20.909Z,2.20
2023-05-08T03:13:23.368Z,2.60
2023-05-08T03:18:32.266Z,2.20
2023-05-08T03:23:38.395Z,2.20
2023-05-08T03:28:41.446Z,2.60
2023-05-08T03:33:44.438Z,2.40
2023-05-08T03:38:48.457Z,1.90
2023-05-08T03:43:51.457Z,2.10
2023-05-08T03:48:54.496Z,1.73
2023-05-08T03:53:57.851Z,1.50
2023-05-08T03:59:11.645Z,1.67
2023-05-08T04:04:19.242Z,1.70
2023-05-08T04:09:29.280Z,1.80
2023-05-08T04:14:36.587Z,2.10
2023-05-08T04:19:44.077Z,2.13
2023-05-08T04:24:49.680Z,2.00
2023-05-08T04:29:52.322Z,2.23
2023-05-08T04:34:55.446Z,2.10
2023-05-08T04:39:59.267Z,2.10
2023-05-08T04:45:01.216Z,2.13
2023-05-08T04:50:03.494Z,2.20
2023-05-08T04:55:08.385Z,2.20
2023-05-08T05:00:11.811Z,1.87
2023-05-08T05:05:14.236Z,1.57
2023-05-08T05:10:18.098Z,1.60
2023-05-08T05:15:20.283Z,1.67
2023-05-08T05:20:22.154Z,1.70
2023-05-08T05:25:25.460Z,1.40
2023-05-08T05:30:28.216Z,1.53
2023-05-08T05:35:30.212Z,1.53
2023-05-08T05:40:33.863Z,2.10
2023-05-08T05:45:36.429Z,1.70
2023-05-08T05:50:39.193Z,2.47
2023-05-08T05:55:42.826Z,1.93
2023-05-08T06:00:45.467Z,2.10
2023-05-08T06:05:48.710Z,2.13
2023-05-08T06:10:52.194Z,2.27
2023-05-08T06:15:57.321Z,2.30
2023-05-08T06:20:59.842Z,2.00
2023-05-08T06:26:04.019Z,2.13
2023-05-08T06:31:06.636Z,2.20
2023-05-08T06:36:09.617Z,2.40
2023-05-08T06:41:15.189Z,2.53
2023-05-08T06:46:17.518Z,3.37
2023-05-08T06:51:23.262Z,3.20
2023-05-08T06:56:26.835Z,2.93
2023-05-08T07:01:29.142Z,2.80
2023-05-08T07:06:32.189Z,3.20
2023-05-08T07:11:35.966Z,3.60
2023-05-08T07:16:38.325Z,3.40
2023-05-08T07:21:40.588Z,4.23
2023-05-08T07:26:44.464Z,5.10
2023-05-08T07:31:47.122Z,3.77
2023-05-08T07:36:49.751Z,3.80
2023-05-08T07:41:53.963Z,3.10
2023-05-08T07:46:55.936Z,2.90
2023-05-08T07:51:58.061Z,3.20
2023-05-08T07:57:01.716Z,2.73
2023-05-08T08:02:03.926Z,2.30
2023-05-08T08:07:05.776Z,2.73
2023-05-08T08:12:09.474Z,2.67
2023-05-08T08:17:11.729Z,2.50
2023-05-08T08:22:13.873Z,2.40
2023-05-08T08:27:17.259Z,2.80
2023-05-08T08:32:19.467Z,2.80
2023-05-08T08:37:21.317Z,2.87
2023-05-08T08:42:25.126Z,2.67
2023-05-08T08:47:37.789Z,2.77
2023-05-08T08:52:44.695Z,2.50
2023-05-08T08:57:56.739Z,2.67
2023-05-08T09:02:59.170Z,2.57
2023-05-08T09:08:02.439Z,2.40
2023-05-08T09:13:06.633Z,2.27
2023-05-08T09:18:08.833Z,2.30
2023-05-08T09:23:12.048Z,2.30
2023-05-08T09:28:19.481Z,2.30
2023-05-08T09:33:23.014Z,1.80
2023-05-08T09:38:36.688Z,1.60
2023-05-08T09:43:40.744Z,1.70
2023-05-08T09:48:42.572Z,1.90
2023-05-08T09:53:44.870Z,1.53
2023-05-08T09:58:48.096Z,1.90
2023-05-08T10:03:51.664Z,2.10
2023-05-08T10:09:08.484Z,1.30
2023-05-08T10:14:12.052Z,1.33
2023-05-08T10:19:16.222Z,1.20
2023-05-08T10:24:20.278Z,1.57
2023-05-08T10:29:33.400Z,1.40
2023-05-08T10:34:36.515Z,1.20
2023-05-08T10:39:40.027Z,1.70
2023-05-08T10:44:43.559Z,1.37
2023-05-08T10:49:53.147Z,1.60
2023-05-08T10:55:24.297Z,1.60
2023-05-08T11:00:27.455Z,1.20
2023-05-08T11:05:29.225Z,1.42
2023-05-08T11:10:32.708Z,1.52
2023-05-08T11:15:40.977Z,1.55
2023-05-08T11:20:45.086Z,1.50
2023-05-08T11:25:47.086Z,1.25
2023-05-08T11:30:55.429Z,0.77
2023-05-08T11:35:58.730Z,0.90
2023-05-08T11:41:03.233Z,1.15
2023-05-08T11:46:08.705Z,1.00
2023-05-08T11:51:11.372Z,0.70
2023-05-08T11:56:13.212Z,0.60
2023-05-08T12:01:22.203Z,0.70
2023-05-08T12:06:24.196Z,0.70
2023-05-08T12:11:26.720Z,0.60
2023-05-08T12:16:29.944Z,0.60
2023-05-08T12:21:32.616Z,0.50
2023-05-08T12:26:37.412Z,0.50
2023-05-08T12:31:41.112Z,0.60
2023-05-08T12:36:43.518Z,0.63
2023-05-08T12:41:49.933Z,0.80
2023-05-08T12:46:54.596Z,0.50
2023-05-08T12:52:06.761Z,0.60
2023-05-08T12:57:12.831Z,0.50
2023-05-08T13:02:18.785Z,0.50
2023-05-08T13:07:21.100Z,0.75
2023-05-08T13:12:23.093Z,0.50
2023-05-08T13:17:26.584Z,0.70
2023-05-08T13:22:29.185Z,0.60
2023-05-08T13:27:31.261Z,0.68
2023-05-08T13:32:35.717Z,0.40
2023-05-08T13:37:37.885Z,0.50
2023-05-08T13:42:39.948Z,0.70
2023-05-08T13:47:43.717Z,0.70
2023-05-08T13:52:45.984Z,0.68
2023-05-08T13:57:47.760Z,0.75
2023-05-08T14:02:53.165Z,0.80
2023-05-08T14:07:55.860Z,0.95
2023-05-08T14:12:58.707Z,0.90
2023-05-08T14:18:02.317Z,0.68
2023-05-08T14:23:04.514Z,0.98
2023-05-08T14:28:06.852Z,0.93
2023-05-08T14:33:11.353Z,0.75
2023-05-08T14:38:13.702Z,0.95
2023-05-08T14:43:15.606Z,1.05
2023-05-08T14:48:19.190Z,1.30
2023-05-08T14:53:21.963Z,1.13
2023-05-08T14:58:24.463Z,1.10
2023-05-08T15:03:28.209Z,0.85
2023-05-08T15:08:31.173Z,1.00
2023-05-08T15:13:33.587Z,1.13
2023-05-08T15:18:40.585Z,1.65
2023-05-08T15:23:43.026Z,2.00
2023-05-08T15:28:45.047Z,1.75
2023-05-08T15:33:48.543Z,1.52
2023-05-08T15:38:50.395Z,1.50
2023-05-08T15:43:52.126Z,2.08
2023-05-08T15:48:58.057Z,2.35
2023-05-08T15:54:00.982Z,2.25
2023-05-08T15:59:02.854Z,2.15
2023-05-08T16:04:06.951Z,1.60
2023-05-08T16:09:09.370Z,1.90
2023-05-08T16:14:11.831Z,1.85
2023-05-08T16:19:16.129Z,1.90
2023-05-08T16:24:18.179Z,1.90
2023-05-08T16:29:20.153Z,1.90
2023-05-08T16:34:23.761Z,1.90
2023-05-08T16:39:25.941Z,1.70
2023-05-08T16:44:27.989Z,1.70
2023-05-08T16:49:31.445Z,1.88
2023-05-08T16:54:33.668Z,1.77
2023-05-08T16:59:35.876Z,1.80
2023-05-08T17:04:39.731Z,2.47
2023-05-08T17:09:42.347Z,1.70
2023-05-08T17:14:45.141Z,1.97
2023-05-08T17:19:52.134Z,2.60
2023-05-08T17:24:55.008Z,1.67
2023-05-08T17:29:57.735Z,2.30
2023-05-08T17:35:02.501Z,2.27
2023-05-08T17:40:05.821Z,2.57
2023-05-08T17:45:11.011Z,2.17
2023-05-08T17:50:15.325Z,2.33
2023-05-08T17:55:18.220Z,3.17
2023-05-08T18:00:21.659Z,3.00
2023-05-08T18:05:25.738Z,2.50
2023-05-08T18:10:28.554Z,2.00
2023-05-08T18:15:31.942Z,2.10
2023-05-08T18:20:36.399Z,1.80
2023-05-08T18:25:39.008Z,2.20
2023-05-08T18:30:44.640Z,1.93
2023-05-08T18:35:51.234Z,2.40
2023-05-08T18:40:55.124Z,2.20
2023-05-08T18:45:58.524Z,3.00
2023-05-08T18:51:03.119Z,3.13
2023-05-08T18:56:06.967Z,3.03
2023-05-08T19:01:10.200Z,3.23
2023-05-08T19:06:15.613Z,3.20
2023-05-08T19:11:18.487Z,3.17
2023-05-08T19:16:21.362Z,3.60
2023-05-08T19:21:25.974Z,3.60
2023-05-08T19:26:28.913Z,4.53
2023-05-08T19:31:31.901Z,5.17
2023-05-08T19:36:38.798Z,4.97
2023-05-08T19:41:41.946Z,5.20
2023-05-08T19:46:44.750Z,4.83
2023-05-08T19:51:50.158Z,4.50
2023-05-08T19:56:53.036Z,4.73
2023-05-08T20:01:55.712Z,5.60
2023-05-08T20:07:00.239Z,5.17
2023-05-08T20:12:03.059Z,5.23
2023-05-08T20:17:05.986Z,4.00
2023-05-08T20:22:11.618Z,4.00
2023-05-08T20:27:13.590Z,3.90
2023-05-08T20:32:16.712Z,4.30
2023-05-08T20:37:20.345Z,3.60
2023-05-08T20:42:24.564Z,3.10
2023-05-08T20:47:26.501Z,2.73
2023-05-08T20:52:32.709Z,3.50
2023-05-08T20:57:35.485Z,3.50
2023-05-08T21:02:40.538Z,3.30
2023-05-08T21:07:44.410Z,3.80
2023-05-08T21:12:46.710Z,2.53
2023-05-08T21:17:50.574Z,3.10
2023-05-08T21:22:54.137Z,2.87
2023-05-08T21:27:58.174Z,2.83
2023-05-08T21:33:00.233Z,3.10
2023-05-08T21:38:03.785Z,2.60
2023-05-08T21:43:05.622Z,3.70
2023-05-08T21:48:08.968Z,4.27
2023-05-08T21:53:13.121Z,3.77
2023-05-08T21:58:15.648Z,5.40
2023-05-08T22:03:18.255Z,5.00
2023-05-08T22:08:58.800Z,2.90
2023-05-08T22:14:15.381Z,2.33
